createdAt,value
2019-01-27T00:02:37.087Z,6.30
2019-01-27T00:06:21.680Z,6.20
2019-01-27T00:18:08.584Z,6.20
2019-01-27T00:25:50.006Z,6.20
2019-01-27T00:29:15.683Z,6.10
2019-01-27T00:32:43.861Z,6.00
2019-01-27T00:36:09.477Z,5.90
2019-01-27T00:39:35.113Z,5.80
2019-01-27T00:43:00.760Z,5.70
2019-01-27T00:46:26.358Z,5.70
2019-01-27T00:49:51.908Z,5.70
2019-01-27T00:53:17.559Z,5.60
2019-01-27T00:56:43.222Z,5.60
2019-01-27T01:00:12.157Z,5.60
2019-01-27T01:03:37.846Z,5.60
2019-01-27T01:07:03.491Z,5.60
2019-01-27T01:10:29.136Z,5.60
2019-01-27T01:13:54.976Z,5.70
2019-01-27T01:17:20.615Z,5.70
2019-01-27T01:20:46.312Z,5.80
2019-01-27T01:24:31.375Z,5.80
2019-01-27T01:27:56.977Z,5.90
2019-01-27T01:31:22.660Z,5.80
2019-01-27T01:34:48.681Z,5.90
2019-01-27T01:38:14.257Z,5.90
2019-01-27T01:41:39.862Z,5.90
2019-01-27T01:45:08.912Z,5.90
2019-01-27T01:48:34.608Z,5.80
2019-01-27T01:52:00.189Z,5.80
2019-01-27T01:55:26.243Z,5.80
2019-01-27T01:58:51.930Z,5.80
2019-01-27T02:02:17.542Z,5.80
2019-01-27T02:05:43.175Z,5.80
2019-01-27T02:09:11.489Z,5.80
2019-01-27T02:12:37.198Z,5.80
2019-01-27T02:16:09.022Z,5.80
2019-01-27T02:19:34.606Z,5.80
2019-01-27T02:23:07.358Z,5.90
2019-01-27T02:26:35.305Z,5.90
2019-01-27T02:30:00.893Z,5.90
2019-01-27T02:33:26.508Z,5.90
2019-01-27T02:36:52.114Z,6.00
2019-01-27T02:40:18.067Z,6.00
2019-01-27T02:43:43.700Z,6.00
2019-01-27T02:47:09.327Z,6.00
2019-01-27T02:50:34.959Z,6.00
2019-01-27T02:54:03.635Z,6.00
2019-01-27T02:57:29.220Z,6.00
2019-01-27T03:00:54.870Z,6.00
2019-01-27T03:04:20.453Z,6.00
2019-01-27T03:07:46.077Z,6.00
2019-01-27T03:11:11.642Z,6.00
2019-01-27T03:14:37.565Z,6.10
2019-01-27T03:18:03.386Z,6.00
2019-01-27T03:21:28.976Z,6.00
2019-01-27T03:24:54.593Z,6.00
2019-01-27T03:28:20.181Z,6.00
2019-01-27T03:31:45.763Z,6.00
2019-01-27T03:35:11.647Z,6.10
2019-01-27T03:38:37.237Z,6.10
2019-01-27T03:42:02.869Z,6.10
2019-01-27T03:45:28.482Z,6.10
2019-01-27T03:48:54.071Z,6.10
2019-01-27T03:52:19.635Z,6.10
2019-01-27T03:55:45.198Z,6.10
2019-01-27T03:59:10.909Z,6.10
2019-01-27T04:02:36.523Z,6.10
2019-01-27T04:06:02.082Z,6.10
2019-01-27T04:09:27.662Z,6.10
2019-01-27T04:12:53.266Z,6.10
2019-01-27T04:16:18.862Z,6.20
2019-01-27T04:19:44.568Z,6.20
2019-01-27T04:23:10.158Z,6.20
2019-01-27T04:26:37.799Z,6.20
2019-01-27T04:30:03.785Z,6.20
2019-01-27T04:33:29.373Z,6.20
2019-01-27T04:37:13.075Z,6.30
2019-01-27T04:40:39.251Z,6.20
2019-01-27T04:48:01.149Z,6.20
2019-01-27T04:51:26.706Z,6.10
2019-01-27T04:54:52.312Z,6.10
2019-01-27T04:58:17.942Z,6.10
2019-01-27T05:01:43.595Z,6.10
2019-01-27T05:05:10.371Z,6.20
2019-01-27T05:08:35.951Z,6.20
2019-01-27T05:12:01.592Z,6.20
2019-01-27T05:15:27.938Z,6.30
2019-01-27T05:18:53.535Z,6.20
2019-01-27T05:22:19.121Z,6.20
2019-01-27T05:25:44.679Z,6.20
2019-01-27T05:29:10.287Z,6.20
2019-01-27T05:32:35.870Z,6.30
2019-01-27T05:36:01.459Z,6.30
2019-01-27T05:39:27.062Z,6.30
2019-01-27T05:42:52.680Z,6.20
2019-01-27T05:46:18.653Z,6.30
2019-01-27T05:49:44.347Z,6.30
2019-01-27T05:53:09.951Z,6.30
2019-01-27T05:56:35.515Z,6.20
2019-01-27T06:00:01.245Z,6.20
2019-01-27T06:03:26.841Z,6.20
2019-01-27T06:06:52.619Z,6.20
2019-01-27T06:10:18.210Z,6.20
2019-01-27T06:13:43.850Z,6.20
2019-01-27T06:17:09.425Z,6.20
2019-01-27T06:20:35.375Z,6.20
2019-01-27T06:28:04.419Z,6.10
2019-01-27T06:31:49.059Z,6.10
2019-01-27T06:35:33.918Z,6.10
2019-01-27T06:43:02.041Z,6.00
2019-01-27T06:46:46.649Z,5.90
2019-01-27T06:54:21.110Z,5.90
2019-01-27T06:58:06.282Z,6.00
2019-01-27T07:06:32.428Z,6.10
2019-01-27T07:10:36.119Z,6.20
2019-01-27T07:18:51.682Z,6.30
2019-01-27T07:22:44.699Z,6.40
2019-01-27T07:26:48.226Z,6.30
2019-01-27T07:35:10.608Z,6.40
2019-01-27T07:39:14.044Z,6.40
2019-01-27T07:43:12.745Z,6.30
2019-01-27T07:47:22.349Z,6.40
2019-01-27T07:51:45.344Z,6.40
2019-01-27T07:55:48.835Z,6.40
2019-01-27T07:59:55.268Z,6.40
2019-01-27T08:07:54.881Z,6.50
2019-01-27T08:11:58.986Z,6.50
2019-01-27T08:16:02.740Z,6.50
2019-01-27T08:20:06.186Z,6.60
2019-01-27T08:24:09.636Z,6.60
2019-01-27T08:28:13.095Z,6.60
2019-01-27T08:32:08.137Z,6.70
2019-01-27T08:36:11.554Z,6.70
2019-01-27T08:40:12.498Z,6.80
2019-01-27T08:44:08.841Z,6.80
2019-01-27T08:51:56.918Z,6.90
2019-01-27T08:56:00.494Z,7.00
2019-01-27T08:59:45.144Z,7.00
2019-01-27T09:07:39.589Z,7.20
2019-01-27T09:11:43.041Z,7.20
2019-01-27T09:15:46.500Z,7.30
2019-01-27T09:19:50.265Z,7.30
2019-01-27T09:23:53.752Z,7.30
2019-01-27T09:27:55.059Z,7.20
2019-01-27T09:31:58.635Z,7.20
2019-01-27T09:36:02.249Z,7.20
2019-01-27T09:40:05.922Z,7.20
2019-01-27T09:44:02.144Z,7.20
2019-01-27T09:48:05.791Z,7.20
2019-01-27T09:52:09.264Z,7.10
2019-01-27T09:56:12.718Z,7.00
2019-01-27T10:00:02.831Z,6.90
2019-01-27T10:04:06.725Z,6.70
2019-01-27T10:08:10.276Z,6.60
2019-01-27T10:12:13.761Z,6.60
2019-01-27T10:16:17.264Z,6.50
2019-01-27T10:20:11.750Z,6.50
2019-01-27T10:24:15.438Z,6.50
2019-01-27T10:36:18.479Z,6.70
2019-01-27T10:40:22.212Z,6.60
2019-01-27T10:44:21.010Z,6.60
2019-01-27T12:45:52.264Z,6.40
2019-01-27T12:49:36.959Z,6.50
2019-01-27T12:53:21.582Z,6.50
2019-01-27T12:57:06.604Z,6.50
2019-01-27T13:00:55.112Z,6.60
2019-01-27T13:04:39.719Z,6.60
2019-01-27T13:08:25.902Z,6.70
2019-01-27T13:12:10.746Z,6.70
2019-01-27T13:15:55.394Z,6.60
2019-01-27T13:19:40.308Z,6.70
2019-01-27T13:27:28.712Z,6.70
2019-01-27T13:31:32.162Z,6.60
2019-01-27T13:35:17.234Z,6.60
2019-01-27T13:39:02.165Z,6.50
2019-01-27T13:43:05.610Z,6.50
2019-01-27T13:46:31.246Z,6.50
2019-01-27T13:50:16.101Z,6.60
2019-01-27T13:54:00.726Z,6.60
2019-01-27T13:57:46.116Z,6.50
2019-01-27T14:01:30.786Z,6.50
2019-01-27T14:05:15.471Z,6.50
2019-01-27T14:09:00.138Z,6.40
2019-01-27T14:13:03.642Z,6.40
2019-01-27T14:16:48.389Z,6.40
2019-01-27T14:20:33.186Z,6.40
2019-01-27T14:24:17.890Z,6.40
2019-01-27T14:28:21.629Z,6.40
2019-01-27T14:32:06.258Z,6.40
2019-01-27T14:35:50.885Z,6.40
2019-01-27T14:39:35.536Z,6.30
2019-01-27T14:43:12.664Z,6.20
2019-01-27T14:46:57.353Z,6.20
2019-01-27T14:50:45.040Z,6.20
2019-01-27T14:54:29.702Z,6.10
2019-01-27T14:58:14.377Z,6.00
2019-01-27T15:01:59.073Z,5.90
2019-01-27T15:06:04.082Z,5.80
2019-01-27T15:09:29.719Z,5.70
2019-01-27T15:13:14.340Z,5.70
2019-01-27T15:16:59.026Z,5.70
2019-01-27T15:20:38.168Z,5.60
2019-01-27T15:24:22.885Z,5.60
2019-01-27T15:28:07.476Z,5.50
2019-01-27T15:31:33.352Z,5.40
2019-01-27T15:35:18.002Z,5.40
2019-01-27T15:39:03.035Z,5.30
2019-01-27T15:42:47.666Z,5.30
2019-01-27T15:46:32.322Z,5.30
2019-01-27T15:50:19.239Z,5.30
2019-01-27T15:54:04.071Z,5.20
2019-01-27T15:57:49.375Z,5.20
2019-01-27T16:01:34.065Z,5.10
2019-01-27T16:05:19.842Z,5.10
2019-01-27T16:09:06.064Z,5.00
2019-01-27T16:16:40.490Z,5.00
2019-01-27T16:20:17.659Z,5.10
2019-01-27T16:27:55.475Z,5.00
2019-01-27T16:31:47.813Z,5.00
2019-01-27T16:39:22.881Z,5.00
2019-01-27T16:42:59.761Z,4.90
2019-01-27T16:46:44.486Z,4.90
2019-01-27T16:50:29.249Z,4.80
2019-01-27T16:54:13.912Z,4.80
2019-01-27T16:57:58.570Z,4.60
2019-01-27T17:01:43.223Z,4.50
2019-01-27T17:05:27.937Z,4.50
2019-01-27T17:13:02.609Z,4.60
2019-01-27T17:20:43.758Z,4.50
2019-01-27T17:36:18.537Z,4.40
2019-01-27T17:40:03.272Z,4.40
2019-01-27T17:44:06.731Z,4.40
2019-01-27T17:48:10.166Z,4.40
2019-01-27T17:51:55.030Z,4.40
2019-01-27T17:55:43.356Z,4.40
2019-01-27T17:59:34.278Z,4.40
2019-01-27T18:03:37.732Z,4.30
2019-01-27T18:07:41.275Z,4.40
2019-01-27T18:11:30.447Z,4.40
2019-01-27T18:15:34.685Z,4.40
2019-01-27T18:19:20.352Z,4.40
2019-01-27T18:23:05.263Z,4.50
2019-01-27T18:30:33.944Z,4.50
2019-01-27T18:34:18.582Z,4.50
2019-01-27T18:37:44.100Z,4.50
2019-01-27T18:41:09.707Z,4.50
2019-01-27T18:44:35.395Z,4.40
2019-01-27T18:48:20.024Z,4.40
2019-01-27T18:51:45.626Z,4.40
2019-01-27T18:55:30.436Z,4.30
2019-01-27T18:59:34.209Z,4.20
2019-01-27T19:03:46.415Z,4.20
2019-01-27T19:07:30.916Z,4.20
2019-01-27T19:11:15.396Z,4.20
2019-01-27T19:14:58.521Z,4.20
2019-01-27T19:18:41.812Z,4.10
2019-01-27T19:22:32.393Z,4.10
2019-01-27T19:26:05.373Z,4.10
2019-01-27T19:29:53.209Z,4.00
2019-01-27T19:33:37.818Z,4.00
2019-01-27T19:37:10.694Z,4.00
2019-01-27T19:40:55.491Z,3.90
2019-01-27T19:44:27.417Z,3.90
2019-01-27T19:48:14.689Z,3.80
2019-01-27T19:52:11.171Z,3.80
2019-01-27T19:56:02.191Z,3.70
2019-01-27T19:59:49.557Z,3.70
2019-01-27T20:03:31.049Z,3.60
2019-01-27T20:07:18.376Z,3.50
2019-01-27T20:11:01.194Z,3.60
2019-01-27T20:14:51.774Z,3.70
2019-01-27T20:18:25.523Z,3.80
2019-01-27T20:22:01.604Z,3.80
2019-01-27T20:25:50.943Z,3.80
2019-01-27T20:29:31.870Z,3.80
2019-01-27T20:33:14.964Z,3.60
2019-01-27T20:37:02.643Z,3.50
2019-01-27T20:40:47.101Z,3.60
2019-01-27T20:44:17.242Z,3.60
2019-01-27T20:47:58.831Z,3.50
2019-01-27T20:51:43.395Z,3.50
2019-01-27T20:55:28.641Z,3.50
2019-01-27T20:59:07.955Z,3.60
2019-01-27T21:02:51.364Z,3.60
2019-01-27T21:06:32.540Z,3.60
2019-01-27T21:10:20.070Z,3.60
2019-01-27T21:14:05.422Z,3.60
2019-01-27T21:17:49.863Z,3.60
2019-01-27T21:21:15.721Z,3.70
2019-01-27T21:24:41.527Z,3.70
2019-01-27T21:28:10.839Z,3.70
2019-01-27T21:31:36.548Z,3.70
2019-01-27T21:35:02.153Z,3.70
2019-01-27T21:38:27.772Z,3.70
2019-01-27T21:41:53.384Z,3.70
2019-01-27T21:45:19.219Z,3.60
2019-01-27T21:48:49.193Z,3.50
2019-01-27T21:52:12.354Z,3.50
2019-01-27T21:55:41.700Z,3.50
2019-01-27T21:59:07.328Z,3.50
2019-01-27T22:02:32.933Z,3.50
2019-01-27T22:05:58.525Z,3.50
2019-01-27T22:09:24.099Z,3.50
2019-01-27T22:12:49.718Z,3.50
2019-01-27T22:16:15.406Z,3.60
2019-01-27T22:19:41.019Z,3.60
2019-01-27T22:23:08.155Z,3.60
2019-01-27T22:26:33.877Z,3.70
2019-01-27T22:29:59.548Z,3.70
2019-01-27T22:33:25.207Z,3.70
2019-01-27T22:36:50.857Z,3.70
2019-01-27T22:40:17.458Z,3.80
2019-01-27T22:43:43.129Z,3.80
2019-01-27T22:47:08.776Z,3.80
2019-01-27T22:50:34.490Z,3.80
2019-01-27T22:54:00.213Z,3.90
2019-01-27T22:57:25.866Z,3.90
2019-01-27T23:01:10.092Z,3.90
2019-01-27T23:04:35.920Z,3.80
2019-01-27T23:08:01.518Z,3.80
2019-01-27T23:11:28.745Z,3.80
2019-01-27T23:14:54.500Z,3.90
2019-01-27T23:18:20.239Z,3.90
2019-01-27T23:21:45.947Z,3.90
2019-01-27T23:25:11.542Z,3.90
2019-01-27T23:28:37.310Z,3.90
2019-01-27T23:32:02.985Z,3.90
2019-01-27T23:35:31.465Z,3.90
2019-01-27T23:38:58.183Z,3.80
2019-01-27T23:42:23.806Z,3.80
2019-01-27T23:45:49.433Z,3.70
2019-01-27T23:49:15.117Z,3.80
2019-01-27T23:52:40.989Z,3.90
2019-01-27T23:56:06.605Z,3.80
2019-01-27T23:59:32.308Z,3.80
